Time;durP1;ratioP1;P1;durP2;ratioP2;P2;SDS_P1;SDS_P2;PMS_P1;PMS_P2;Temp;Humidity;BMP_temperature;BMP_pressure;BME280_temperature;BME280_humidity;BME280_pressure;Samples;Min_cycle;Max_cycle;Signal;HPM_P1;HPM_P2
2022/12/14 00:01:09;;;;;;;56.13;29.35;;;-3.40;99.90;;;;;;5024282;28;20077;-61
2022/12/14 00:03:35;;;;;;;53.88;28.77;;;-3.40;99.90;;;;;;5023833;28;20053;-61
2022/12/14 00:06:13;;;;;;;55.05;28.63;;;-3.50;99.90;;;;;;5028284;28;20094;-61
2022/12/14 00:08:39;;;;;;;60.58;30.23;;;-3.50;99.90;;;;;;5028047;28;20045;-61
2022/12/14 00:11:05;;;;;;;55.95;29.58;;;-3.50;99.90;;;;;;5023580;28;20203;-61
2022/12/14 00:13:31;;;;;;;55.35;28.67;;;-3.50;99.90;;;;;;5024340;28;20504;-61
2022/12/14 00:15:57;;;;;;;52.00;28.88;;;-3.50;99.90;;;;;;5029317;28;20049;-61
2022/12/14 00:18:23;;;;;;;56.38;29.95;;;-3.50;99.90;;;;;;5027975;28;20053;-61
2022/12/14 00:20:49;;;;;;;52.53;28.75;;;-3.50;99.90;;;;;;5026201;28;20048;-61
2022/12/14 00:23:14;;;;;;;54.45;29.58;;;-3.60;99.90;;;;;;5028701;28;20048;-61
2022/12/14 00:25:40;;;;;;;59.17;29.10;;;-3.60;99.90;;;;;;5027594;28;20092;-61
2022/12/14 00:28:06;;;;;;;55.70;29.50;;;-3.60;99.90;;;;;;5026117;28;20056;-61
2022/12/14 00:30:32;;;;;;;57.13;29.90;;;-3.60;99.90;;;;;;5028201;28;20099;-60
2022/12/14 00:32:58;;;;;;;54.05;28.40;;;-3.60;99.90;;;;;;5030173;28;20479;-61
2022/12/14 00:35:24;;;;;;;53.97;28.67;;;-3.70;99.90;;;;;;5026880;28;20048;-61
2022/12/14 00:37:50;;;;;;;53.30;28.55;;;-3.70;99.90;;;;;;5031900;28;20041;-61
2022/12/14 00:40:16;;;;;;;55.55;28.95;;;-3.70;99.90;;;;;;5030515;28;20116;-61
2022/12/14 00:42:41;;;;;;;53.25;28.02;;;-3.70;99.90;;;;;;5028698;28;20492;-61
2022/12/14 00:45:08;;;;;;;52.80;27.42;;;-3.70;99.90;;;;;;5029294;28;20090;-60
2022/12/14 00:47:34;;;;;;;52.63;27.98;;;-3.80;99.90;;;;;;5030464;28;20119;-61
2022/12/14 00:49:59;;;;;;;52.97;28.60;;;-3.80;99.90;;;;;;5034998;28;20128;-61
2022/12/14 00:52:26;;;;;;;49.13;26.85;;;-3.80;99.90;;;;;;5030982;28;20045;-61
2022/12/14 00:54:52;;;;;;;52.15;27.88;;;-3.80;99.90;;;;;;5030652;28;20164;-61
2022/12/14 00:57:18;;;;;;;53.75;26.98;;;-3.90;99.90;;;;;;5026961;28;20048;-61
2022/12/14 00:59:43;;;;;;;50.40;27.23;;;-3.90;99.90;;;;;;5026858;28;20155;-61
2022/12/14 01:02:09;;;;;;;48.00;26.88;;;-3.90;99.90;;;;;;5031954;28;21385;-61
2022/12/14 01:04:35;;;;;;;50.67;27.60;;;-3.90;99.90;;;;;;5040769;28;20042;-61
2022/12/14 01:07:01;;;;;;;51.25;25.60;;;-3.90;99.90;;;;;;5029360;28;20084;-61
2022/12/14 01:09:26;;;;;;;49.47;25.75;;;-4.00;99.90;;;;;;5027697;28;20056;-61
2022/12/14 01:11:52;;;;;;;48.72;26.73;;;-4.00;99.90;;;;;;5025266;28;20049;-61
2022/12/14 01:14:20;;;;;;;46.10;26.23;;;-4.00;99.90;;;;;;5028027;28;20124;-61
2022/12/14 01:16:47;;;;;;;49.90;27.40;;;-4.00;99.90;;;;;;5032257;28;20058;-61
2022/12/14 01:19:14;;;;;;;45.25;24.83;;;-4.00;99.90;;;;;;5027781;28;20060;-61
2022/12/14 01:21:40;;;;;;;46.65;26.13;;;-4.00;99.90;;;;;;5028330;28;20056;-61
2022/12/14 01:24:07;;;;;;;44.88;25.27;;;-4.10;99.90;;;;;;5031893;28;20056;-61
2022/12/14 01:26:36;;;;;;;47.10;25.42;;;-4.10;99.90;;;;;;5032516;28;20124;-61
2022/12/14 01:29:03;;;;;;;48.92;25.98;;;-4.10;99.90;;;;;;5033301;28;20045;-61
2022/12/14 01:31:34;;;;;;;45.70;25.50;;;-4.10;99.90;;;;;;5028185;28;20535;-61
2022/12/14 01:34:00;;;;;;;48.03;25.80;;;-4.20;99.90;;;;;;5028627;28;20060;-60
2022/12/14 01:36:29;;;;;;;47.25;25.63;;;-4.20;99.90;;;;;;5031010;28;20157;-61
2022/12/14 01:38:57;;;;;;;47.97;25.55;;;-4.30;99.90;;;;;;5036131;28;20045;-61
2022/12/14 01:41:29;;;;;;;44.25;25.33;;;-4.30;99.90;;;;;;5034917;28;20128;-61
2022/12/14 01:43:57;;;;;;;42.25;23.65;;;-4.30;99.90;;;;;;5027708;28;20053;-61
2022/12/14 01:46:43;;;;;;;44.00;24.20;;;-4.30;99.90;;;;;;5030154;28;20045;-61
2022/12/14 01:49:19;;;;;;;42.53;23.92;;;-4.40;99.90;;;;;;5030229;28;20045;-61
2022/12/14 01:52:16;;;;;;;49.75;25.05;;;-4.40;99.90;;;;;;5044186;28;21617;-61
2022/12/14 01:54:44;;;;;;;46.83;24.90;;;-4.50;99.90;;;;;;5005127;28;20124;-61
2022/12/14 01:57:12;;;;;;;45.15;24.88;;;-4.50;99.90;;;;;;5026984;28;22247;-61
2022/12/14 01:59:42;;;;;;;48.28;24.98;;;-4.50;99.90;;;;;;5026472;28;20044;-61
2022/12/14 02:02:11;;;;;;;41.50;24.58;;;-4.60;99.90;;;;;;5029409;28;20046;-60
2022/12/14 02:04:40;;;;;;;47.75;24.55;;;-4.60;99.90;;;;;;5016435;28;20049;-61
2022/12/14 02:07:06;;;;;;;43.10;24.35;;;-4.70;99.90;;;;;;5025995;28;20047;-61
2022/12/14 02:09:36;;;;;;;43.28;23.27;;;-4.70;99.90;;;;;;5031957;28;20679;-61
2022/12/14 02:12:10;;;;;;;44.28;23.25;;;-4.70;99.90;;;;;;5032549;28;20047;-61
2022/12/14 02:14:37;;;;;;;43.33;23.23;;;-4.80;99.90;;;;;;5033076;28;20498;-61
2022/12/14 02:17:05;;;;;;;41.50;23.58;;;-4.80;99.90;;;;;;5028211;28;20768;-61
2022/12/14 02:19:31;;;;;;;42.72;24.17;;;-4.80;99.90;;;;;;5030610;28;20059;-61
2022/12/14 02:22:47;;;;;;;44.63;23.25;;;-4.90;99.90;;;;;;5029225;28;20152;-61
2022/12/14 02:25:29;;;;;;;44.40;24.52;;;-4.90;99.90;;;;;;5025642;28;20041;-61
2022/12/14 02:28:21;;;;;;;40.85;22.83;;;-5.00;99.90;;;;;;5024683;28;20045;-61
2022/12/14 02:30:55;;;;;;;42.00;23.40;;;-5.00;99.90;;;;;;4981208;28;20525;-61
2022/12/14 02:33:38;;;;;;;41.80;23.08;;;-5.10;99.90;;;;;;5025734;28;20546;-61
2022/12/14 02:36:12;;;;;;;43.55;24.75;;;-5.10;99.90;;;;;;5026671;28;20037;-61
2022/12/14 02:39:10;;;;;;;49.42;25.45;;;-5.20;99.90;;;;;;5026904;28;20048;-61
2022/12/14 02:41:47;;;;;;;47.28;24.67;;;-5.20;99.90;;;;;;5025948;28;20158;-61
2022/12/14 02:44:45;;;;;;;45.72;24.38;;;-5.20;99.90;;;;;;5029575;28;20044;-61
2022/12/14 02:47:32;;;;;;;45.58;23.55;;;-5.20;99.90;;;;;;5021991;28;20044;-61
2022/12/14 02:50:22;;;;;;;42.85;23.38;;;-5.30;99.90;;;;;;5044000;28;20041;-61
2022/12/14 02:52:48;;;;;;;45.00;24.58;;;-5.30;99.90;;;;;;5029522;28;20044;-61
2022/12/14 02:55:35;;;;;;;47.88;24.42;;;-5.30;99.90;;;;;;5030573;28;20045;-61
2022/12/14 02:58:29;;;;;;;46.78;24.67;;;-5.30;99.90;;;;;;5028770;28;20068;-61
2022/12/14 03:00:55;;;;;;;47.92;24.67;;;-5.30;99.90;;;;;;5015824;28;20045;-61
2022/12/14 03:03:21;;;;;;;47.33;24.52;;;-5.30;99.90;;;;;;5028189;28;20051;-61
2022/12/14 03:06:25;;;;;;;48.58;25.55;;;-5.30;99.90;;;;;;5028300;28;20053;-60
2022/12/14 03:08:58;;;;;;;46.55;24.63;;;-5.30;99.90;;;;;;5006048;28;20399;-61
2022/12/14 03:11:54;;;;;;;48.42;24.40;;;-5.30;99.90;;;;;;5032344;28;20118;-61
2022/12/14 03:14:30;;;;;;;48.97;23.05;;;-5.30;99.90;;;;;;5016275;28;20082;-61
2022/12/14 03:17:04;;;;;;;43.88;22.80;;;-5.30;99.90;;;;;;5026915;28;20053;-61
2022/12/14 03:19:37;;;;;;;50.22;24.52;;;-5.40;99.90;;;;;;5044702;28;20110;-61
2022/12/14 03:22:09;;;;;;;44.65;23.42;;;-5.40;99.90;;;;;;5029235;28;20041;-61
2022/12/14 03:24:46;;;;;;;44.95;23.80;;;-5.40;99.90;;;;;;5025164;28;20045;-61
2022/12/14 03:27:23;;;;;;;42.97;22.45;;;-5.40;99.90;;;;;;5031457;28;20080;-61
2022/12/14 03:29:56;;;;;;;45.88;23.45;;;-5.40;99.90;;;;;;5028808;28;20139;-61
2022/12/14 03:32:23;;;;;;;;;;;-5.40;99.90;;;;;;5027845;28;20739;-61
2022/12/14 03:35:09;;;;;;;45.60;23.33;;;-5.50;99.90;;;;;;5023236;28;20363;-61
2022/12/14 03:37:50;;;;;;;45.53;24.23;;;-5.50;99.90;;;;;;5027067;28;20053;-61
2022/12/14 03:40:18;;;;;;;45.33;23.48;;;-5.60;99.90;;;;;;5040569;28;20140;-60
2022/12/14 03:43:03;;;;;;;42.67;22.90;;;-5.60;99.90;;;;;;5027982;28;20045;-61
2022/12/14 03:45:33;;;;;;;45.50;24.05;;;-5.60;99.90;;;;;;5026296;28;20765;-61
2022/12/14 03:48:08;;;;;;;46.20;24.90;;;-5.60;99.90;;;;;;5012466;28;20087;-61
2022/12/14 03:51:00;;;;;;;49.50;25.50;;;-5.70;99.90;;;;;;5026550;28;20053;-61
2022/12/14 03:53:33;;;;;;;49.88;25.58;;;-5.70;99.90;;;;;;5009436;28;20518;-60
2022/12/14 03:56:27;;;;;;;51.70;25.10;;;-5.70;99.90;;;;;;5028740;28;20222;-61
2022/12/14 03:58:59;;;;;;;47.05;24.65;;;-5.80;99.90;;;;;;5027231;28;20048;-60
2022/12/14 04:01:38;;;;;;;53.30;26.70;;;-5.80;99.90;;;;;;5028422;28;20083;-61
2022/12/14 04:04:29;;;;;;;50.35;27.02;;;-5.80;99.90;;;;;;5029888;28;20558;-60
2022/12/14 04:07:03;;;;;;;53.38;26.15;;;-5.80;99.90;;;;;;5014962;28;20099;-60
2022/12/14 04:09:47;;;;;;;50.40;27.20;;;-5.90;99.90;;;;;;5028127;28;20045;-61
2022/12/14 04:21:08;;;;;;;56.22;27.08;;;-6.00;99.90;;;;;;5029929;28;20056;-60
2022/12/14 04:26:41;;;;;;;52.83;26.58;;;-6.00;99.90;;;;;;5029837;28;20047;-61
2022/12/14 04:32:22;;;;;;;50.42;25.75;;;-6.00;99.90;;;;;;5028440;28;20157;-61
2022/12/14 04:34:52;;;;;;;52.13;26.13;;;-6.00;99.90;;;;;;5018213;28;20095;-60
2022/12/14 04:37:22;;;;;;;52.75;26.20;;;-6.00;99.90;;;;;;5032809;28;20041;-61
2022/12/14 04:39:53;;;;;;;49.10;26.42;;;-6.00;99.90;;;;;;5031186;28;21185;-60
2022/12/14 04:42:23;;;;;;;49.67;25.70;;;-6.10;99.90;;;;;;5029157;28;20052;-60
2022/12/14 04:44:54;;;;;;;50.47;27.55;;;-6.10;99.90;;;;;;5031634;28;20051;-60
2022/12/14 04:47:26;;;;;;;51.22;26.20;;;-6.00;99.90;;;;;;5030418;28;20053;-60
2022/12/14 04:50:01;;;;;;;53.67;26.75;;;-6.10;99.90;;;;;;5032330;28;20117;-61
2022/12/14 04:52:38;;;;;;;56.10;27.38;;;-6.10;99.90;;;;;;5035639;28;20115;-61
2022/12/14 04:55:25;;;;;;;55.03;26.67;;;-6.10;99.90;;;;;;5040180;28;20118;-60
2022/12/14 04:58:03;;;;;;;54.13;26.70;;;-6.10;99.90;;;;;;5013031;28;20057;-61
2022/12/14 05:00:34;;;;;;;53.08;25.58;;;-6.10;99.90;;;;;;5032105;28;20049;-61
2022/12/14 05:03:28;;;;;;;54.30;26.50;;;-6.10;99.90;;;;;;5035085;28;20049;-60
2022/12/14 05:06:20;;;;;;;53.67;27.27;;;-6.10;99.90;;;;;;5031706;28;20041;-61
2022/12/14 05:08:49;;;;;;;52.78;26.75;;;-6.10;99.90;;;;;;5034831;28;20915;-60
2022/12/14 05:11:29;;;;;;;53.10;26.00;;;-6.10;99.90;;;;;;5031983;28;20049;-61
2022/12/14 05:13:55;;;;;;;48.10;23.83;;;-6.10;99.90;;;;;;5032197;28;20049;-61
2022/12/14 05:16:23;;;;;;;53.47;26.38;;;-6.10;99.90;;;;;;5035213;28;20055;-60
2022/12/14 05:18:49;;;;;;;46.00;24.02;;;-6.20;99.90;;;;;;5030994;28;20107;-61
2022/12/14 05:24:01;;;;;;;48.40;25.55;;;-6.20;99.90;;;;;;5028553;28;20069;-61
2022/12/14 05:26:28;;;;;;;47.88;25.60;;;-6.30;99.90;;;;;;5045503;28;20083;-61
2022/12/14 05:28:54;;;;;;;49.97;25.38;;;-6.30;99.90;;;;;;5031149;28;20053;-61
2022/12/14 05:31:20;;;;;;;48.97;25.52;;;-6.30;99.90;;;;;;5014590;28;20199;-61
2022/12/14 05:33:46;;;;;;;51.95;26.55;;;-6.40;99.90;;;;;;5030382;28;20169;-60
2022/12/14 05:36:11;;;;;;;47.47;25.60;;;-6.40;99.90;;;;;;5032172;28;20040;-60
2022/12/14 05:38:37;;;;;;;52.47;26.10;;;-6.40;99.90;;;;;;5034006;28;20052;-61
2022/12/14 05:41:03;;;;;;;55.85;27.48;;;-6.50;99.90;;;;;;5029907;28;20045;-61
2022/12/14 05:43:29;;;;;;;51.33;26.15;;;-6.50;99.90;;;;;;5027571;28;20415;-60
2022/12/14 05:45:59;;;;;;;50.70;25.83;;;-6.50;99.90;;;;;;5027149;28;20132;-60
2022/12/14 05:48:25;;;;;;;52.40;25.92;;;-6.50;99.90;;;;;;5000978;28;20763;-60
2022/12/14 05:50:51;;;;;;;50.17;25.15;;;-6.60;99.90;;;;;;5031597;28;20128;-60
2022/12/14 05:53:17;;;;;;;51.13;25.48;;;-6.60;99.90;;;;;;5027844;28;20203;-61
2022/12/14 05:55:47;;;;;;;57.47;25.75;;;-6.60;99.90;;;;;;4995882;28;20046;-62
2022/12/14 05:58:13;;;;;;;48.33;23.65;;;-6.60;99.90;;;;;;5028003;28;20041;-61
2022/12/14 06:00:39;;;;;;;50.83;25.92;;;-6.60;99.90;;;;;;4999097;28;20049;-60
2022/12/14 06:03:05;;;;;;;46.35;25.20;;;-6.60;99.90;;;;;;5029456;28;20049;-60
2022/12/14 06:05:31;;;;;;;49.75;25.65;;;-6.70;99.90;;;;;;5032327;28;20391;-61
2022/12/14 06:07:57;;;;;;;47.97;25.00;;;-6.70;99.90;;;;;;5031516;28;20052;-61
2022/12/14 06:10:23;;;;;;;51.28;24.52;;;-6.70;99.90;;;;;;5009723;28;20040;-60
2022/12/14 06:12:49;;;;;;;52.00;25.70;;;-6.70;99.90;;;;;;5025585;28;20080;-60
2022/12/14 06:15:15;;;;;;;48.30;24.05;;;-6.80;99.90;;;;;;5027556;28;20163;-61
2022/12/14 06:17:45;;;;;;;50.15;24.42;;;-6.80;99.90;;;;;;5015386;28;20061;-60
2022/12/14 06:20:12;;;;;;;50.20;25.17;;;-6.80;99.90;;;;;;5026929;28;20052;-60
2022/12/14 06:22:39;;;;;;;50.35;25.42;;;-6.80;99.90;;;;;;5025946;28;20132;-61
2022/12/14 06:25:06;;;;;;;49.70;25.27;;;-6.90;99.90;;;;;;5027315;28;20067;-60
2022/12/14 06:27:32;;;;;;;50.20;24.58;;;-6.80;99.90;;;;;;5032763;28;20045;-60
2022/12/14 06:29:58;;;;;;;53.95;25.95;;;-6.90;99.90;;;;;;5025799;28;20047;-60
2022/12/14 06:32:24;;;;;;;48.38;24.73;;;-6.90;99.90;;;;;;5005489;28;20053;-60
2022/12/14 06:34:50;;;;;;;47.95;25.50;;;-6.90;99.90;;;;;;5028605;28;20162;-60
2022/12/14 06:37:17;;;;;;;50.35;24.52;;;-6.90;99.90;;;;;;5024351;28;20055;-60
2022/12/14 06:39:43;;;;;;;50.40;24.60;;;-6.90;99.90;;;;;;5026714;28;20053;-60
2022/12/14 06:42:12;;;;;;;49.58;23.60;;;-7.00;99.90;;;;;;5024410;28;20054;-60
2022/12/14 06:44:37;;;;;;;48.65;24.38;;;-7.00;99.90;;;;;;5022751;28;20102;-60
2022/12/14 06:47:03;;;;;;;43.47;24.23;;;-7.00;99.90;;;;;;5027605;28;20060;-60
2022/12/14 06:49:29;;;;;;;50.15;24.08;;;-6.70;99.90;;;;;;5032057;28;20052;-60
2022/12/14 06:51:54;;;;;;;47.47;24.13;;;-7.00;99.90;;;;;;5028905;28;20037;-61
2022/12/14 06:54:21;;;;;;;53.95;25.02;;;-7.00;99.90;;;;;;5028894;28;20057;-61
2022/12/14 06:56:47;;;;;;;47.97;24.33;;;-7.00;99.90;;;;;;5026380;28;20057;-61
2022/12/14 06:59:14;;;;;;;47.35;24.30;;;-7.10;99.90;;;;;;5029181;28;20102;-61
2022/12/14 07:01:41;;;;;;;51.78;24.67;;;-7.10;99.90;;;;;;5030231;28;20057;-61
2022/12/14 07:04:07;;;;;;;52.20;25.35;;;-7.10;99.90;;;;;;5014817;28;20519;-61
2022/12/14 07:06:39;;;;;;;48.38;24.30;;;-7.10;99.90;;;;;;5028478;28;20057;-61
2022/12/14 07:09:07;;;;;;;51.88;25.70;;;-7.10;99.90;;;;;;5030388;28;20791;-61
2022/12/14 07:11:33;;;;;;;50.17;25.13;;;-7.10;99.90;;;;;;5025239;28;20463;-61
2022/12/14 07:14:00;;;;;;;51.35;25.98;;;-7.10;99.90;;;;;;5027568;28;20064;-61
2022/12/14 07:16:28;;;;;;;52.83;25.40;;;-7.10;99.90;;;;;;5030176;28;20081;-60
2022/12/14 07:18:54;;;;;;;52.33;24.52;;;-7.10;99.90;;;;;;5027107;28;20056;-61
2022/12/14 07:21:21;;;;;;;56.70;25.50;;;-7.10;99.90;;;;;;5032672;28;20041;-61
2022/12/14 07:23:48;;;;;;;54.10;25.02;;;-7.10;99.90;;;;;;5032405;28;20037;-61
2022/12/14 07:26:26;;;;;;;56.10;24.88;;;-7.10;99.90;;;;;;5038641;28;20046;-60
2022/12/14 07:28:53;;;;;;;52.28;25.52;;;-7.10;99.90;;;;;;5032442;28;20037;-61
2022/12/14 07:31:21;;;;;;;50.45;25.00;;;-7.10;99.90;;;;;;5007384;28;20045;-60
2022/12/14 07:33:48;;;;;;;59.30;26.38;;;-7.10;99.90;;;;;;5031695;28;20403;-61
2022/12/14 07:36:16;;;;;;;54.45;25.70;;;-7.10;99.90;;;;;;5028254;28;20476;-60
2022/12/14 07:38:44;;;;;;;51.15;25.10;;;-7.10;99.90;;;;;;5033927;28;20033;-61
2022/12/14 07:41:13;;;;;;;49.92;24.50;;;-7.10;99.90;;;;;;5031340;28;20099;-60
2022/12/14 07:43:40;;;;;;;47.55;24.95;;;-6.50;99.90;;;;;;5034585;28;20086;-61
2022/12/14 07:46:08;;;;;;;52.33;25.10;;;-7.10;99.90;;;;;;5030349;28;20053;-60
2022/12/14 07:48:35;;;;;;;60.00;25.35;;;-7.10;99.90;;;;;;5032380;28;20045;-61
2022/12/14 07:51:02;;;;;;;47.95;23.77;;;-7.10;99.90;;;;;;5030019;28;20386;-61
2022/12/14 07:53:28;;;;;;;52.50;25.50;;;-7.10;99.90;;;;;;5026453;28;20416;-60
2022/12/14 07:55:54;;;;;;;57.78;23.67;;;-7.10;99.90;;;;;;5025035;28;20049;-60
2022/12/14 07:58:20;;;;;;;54.33;25.23;;;-7.10;99.90;;;;;;5028759;28;20041;-60
2022/12/14 08:00:47;;;;;;;54.35;25.70;;;-7.10;99.90;;;;;;5028478;28;20415;-61
2022/12/14 08:03:13;;;;;;;53.85;25.48;;;-7.10;99.90;;;;;;5012254;28;20044;-60
2022/12/14 08:05:39;;;;;;;55.15;25.35;;;-7.10;99.90;;;;;;5029069;28;20042;-61
2022/12/14 08:08:05;;;;;;;54.75;25.45;;;-7.00;99.90;;;;;;5028036;28;20033;-59
2022/12/14 08:10:31;;;;;;;53.92;25.85;;;-7.00;99.90;;;;;;5024455;28;20049;-61
2022/12/14 08:12:57;;;;;;;62.03;25.90;;;-7.10;99.90;;;;;;5028377;28;20114;-61
2022/12/14 08:15:23;;;;;;;52.30;25.58;;;-7.00;99.90;;;;;;5027275;28;20049;-61
2022/12/14 08:17:48;;;;;;;56.45;25.10;;;-7.00;99.90;;;;;;5022817;28;20049;-61
2022/12/14 08:20:14;;;;;;;50.67;25.17;;;-7.00;99.90;;;;;;5026460;28;20044;-60
2022/12/14 08:22:40;;;;;;;56.72;26.48;;;-7.00;99.90;;;;;;5028116;28;20050;-60
2022/12/14 08:25:06;;;;;;;52.17;25.55;;;-7.00;99.90;;;;;;5027547;28;22380;-60
2022/12/14 08:27:32;;;;;;;57.28;25.95;;;-7.00;99.90;;;;;;5028164;28;20072;-61
2022/12/14 08:29:58;;;;;;;52.30;25.77;;;-7.00;99.90;;;;;;5026822;28;20045;-60
2022/12/14 08:32:24;;;;;;;55.80;26.23;;;-7.00;99.90;;;;;;5026245;28;20056;-61
2022/12/14 08:34:50;;;;;;;56.72;26.40;;;-7.00;99.90;;;;;;5030257;28;20051;-61
2022/12/14 08:37:16;;;;;;;55.78;25.42;;;-7.00;99.90;;;;;;5017184;28;20136;-61
2022/12/14 08:39:41;;;;;;;55.53;24.73;;;-7.00;99.90;;;;;;5026226;28;20040;-61
2022/12/14 08:42:07;;;;;;;60.90;27.83;;;-6.90;99.90;;;;;;5027797;28;20049;-61
2022/12/14 08:44:33;;;;;;;54.85;25.90;;;-6.90;99.90;;;;;;5027535;28;20049;-61
2022/12/14 08:46:59;;;;;;;59.45;26.27;;;-6.90;99.90;;;;;;5027415;28;20064;-61
2022/12/14 08:49:24;;;;;;;58.72;26.58;;;-6.90;99.90;;;;;;5029902;28;20144;-61
2022/12/14 08:51:50;;;;;;;55.38;26.65;;;-6.90;99.90;;;;;;5010615;28;20492;-61
2022/12/14 08:54:18;;;;;;;57.53;26.63;;;-6.90;99.90;;;;;;5027321;28;20064;-61
2022/12/14 08:56:43;;;;;;;56.88;26.08;;;-6.90;99.90;;;;;;5028578;28;20056;-60
2022/12/14 08:59:09;;;;;;;54.28;24.92;;;-6.30;99.90;;;;;;5027363;28;20095;-61
2022/12/14 09:01:35;;;;;;;52.60;25.42;;;-6.90;99.90;;;;;;5028590;28;20064;-61
2022/12/14 09:04:03;;;;;;;58.03;26.23;;;-6.80;99.90;;;;;;5028392;28;20447;-60
2022/12/14 09:06:31;;;;;;;51.75;25.05;;;-6.80;99.90;;;;;;5032001;28;20041;-60
2022/12/14 09:08:57;;;;;;;55.80;26.60;;;-6.80;99.90;;;;;;5032113;28;20052;-61
2022/12/14 09:11:23;;;;;;;54.20;25.95;;;-6.80;99.90;;;;;;5032046;28;20106;-60
2022/12/14 09:13:53;;;;;;;56.78;25.45;;;-6.70;99.90;;;;;;5015748;28;20053;-61
2022/12/14 09:16:20;;;;;;;56.05;27.20;;;-6.70;99.90;;;;;;5030791;28;20040;-60
2022/12/14 09:18:47;;;;;;;63.70;28.48;;;-6.60;99.90;;;;;;5030796;28;20065;-60
2022/12/14 09:21:13;;;;;;;60.65;27.13;;;-6.60;99.90;;;;;;5035323;28;20049;-60
2022/12/14 09:23:40;;;;;;;65.78;29.88;;;-6.50;99.90;;;;;;5020572;28;20076;-60
2022/12/14 09:26:12;;;;;;;66.75;30.90;;;-6.40;99.90;;;;;;5033752;28;20048;-61
2022/12/14 09:28:39;;;;;;;77.00;33.72;;;-6.30;99.90;;;;;;5016753;28;20053;-61
2022/12/14 09:31:09;;;;;;;70.20;33.38;;;-6.30;99.90;;;;;;5032758;28;20072;-61
2022/12/14 09:33:35;;;;;;;69.00;34.03;;;-6.20;99.90;;;;;;5035557;28;20045;-61
2022/12/14 09:36:03;;;;;;;75.68;33.95;;;-6.10;99.90;;;;;;5033740;28;20034;-61
2022/12/14 09:38:31;;;;;;;75.78;35.35;;;-6.00;99.90;;;;;;5031658;28;20162;-61
2022/12/14 09:41:17;;;;;;;77.28;33.95;;;-5.90;99.90;;;;;;5034255;28;20112;-61
2022/12/14 09:43:51;;;;;;;69.97;33.33;;;-5.90;99.90;;;;;;5036252;28;20045;-61
2022/12/14 09:46:45;;;;;;;71.38;33.75;;;-5.80;99.90;;;;;;5036517;28;20045;-61
2022/12/14 09:49:28;;;;;;;71.07;33.20;;;-5.70;99.90;;;;;;5034046;28;20029;-61
2022/12/14 09:51:59;;;;;;;72.65;33.05;;;-5.60;99.90;;;;;;5035601;28;20056;-61
2022/12/14 09:54:29;;;;;;;70.25;33.78;;;-5.60;99.90;;;;;;5033046;28;20129;-61
2022/12/14 09:57:00;;;;;;;66.95;31.25;;;-5.50;99.90;;;;;;5034392;28;20123;-61
2022/12/14 09:59:28;;;;;;;61.30;30.55;;;-5.30;99.90;;;;;;5022266;28;21075;-61
2022/12/14 10:02:23;;;;;;;73.55;32.40;;;-5.20;99.90;;;;;;5037646;28;20053;-61
2022/12/14 10:05:00;;;;;;;72.93;32.55;;;-5.10;99.90;;;;;;5000937;28;20049;-61
2022/12/14 10:07:50;;;;;;;62.33;30.42;;;-4.90;99.90;;;;;;5033501;28;20088;-61
2022/12/14 10:10:30;;;;;;;61.50;30.20;;;-4.70;99.90;;;;;;5030378;28;20125;-61
2022/12/14 10:13:17;;;;;;;62.63;29.42;;;-4.50;99.90;;;;;;5048676;28;20051;-62
2022/12/14 10:16:02;;;;;;;62.70;28.30;;;-4.20;99.90;;;;;;5034748;28;20103;-61
2022/12/14 10:18:56;;;;;;;55.50;27.08;;;-4.00;99.90;;;;;;5030178;28;20152;-61
2022/12/14 10:21:24;;;;;;;58.03;26.80;;;-3.70;99.90;;;;;;5031437;28;20114;-61
2022/12/14 10:23:52;;;;;;;49.70;23.85;;;-3.50;99.90;;;;;;5035017;28;20076;-61
2022/12/14 10:26:26;;;;;;;52.17;26.27;;;-3.30;99.90;;;;;;5029410;28;20098;-61
2022/12/14 10:29:14;;;;;;;53.60;24.83;;;-3.10;99.90;;;;;;5033264;28;20052;-62
2022/12/14 10:32:02;;;;;;;54.08;26.55;;;-2.90;99.90;;;;;;5033509;28;20399;-61
2022/12/14 10:34:29;;;;;;;54.15;25.83;;;-2.70;99.90;;;;;;5029988;28;20072;-62
2022/12/14 10:37:38;;;;;;;53.10;25.30;;;-2.60;99.90;;;;;;5030684;28;20045;-61
2022/12/14 10:40:10;;;;;;;45.50;23.88;;;-2.40;99.90;;;;;;5025269;28;20057;-62
2022/12/14 10:42:56;;;;;;;42.50;21.90;;;-2.20;99.90;;;;;;5015318;28;20053;-62
2022/12/14 10:45:43;;;;;;;46.10;22.58;;;-2.00;99.90;;;;;;5030424;28;20804;-62
2022/12/14 10:48:36;;;;;;;47.88;23.58;;;-1.80;99.90;;;;;;5036238;28;20159;-62
2022/12/14 10:51:21;;;;;;;43.15;21.23;;;-1.70;99.90;;;;;;5045697;28;20337;-62
2022/12/14 10:54:30;;;;;;;48.38;23.33;;;-1.50;99.90;;;;;;5032256;28;20048;-62
2022/12/14 10:56:56;;;;;;;41.55;20.25;;;-1.40;99.90;;;;;;4976647;28;20073;-62
2022/12/14 10:59:24;;;;;;;40.90;20.20;;;-1.20;99.90;;;;;;5028958;28;20180;-62
2022/12/14 11:02:00;;;;;;;43.20;21.02;;;-1.10;99.90;;;;;;5032966;28;20041;-62
2022/12/14 11:05:00;;;;;;;38.95;20.40;;;-0.90;99.90;;;;;;5037355;28;20869;-62
2022/12/14 11:07:32;;;;;;;43.42;20.98;;;-1.00;99.90;;;;;;5018867;28;20053;-62
2022/12/14 11:10:17;;;;;;;37.73;20.83;;;-0.90;99.90;;;;;;5031352;28;20076;-62
2022/12/14 11:12:58;;;;;;;37.83;20.33;;;-0.80;99.90;;;;;;5031786;28;20391;-62
2022/12/14 11:15:48;;;;;;;34.88;18.48;;;-0.80;99.90;;;;;;5038262;28;20049;-62
2022/12/14 11:18:14;;;;;;;33.53;19.05;;;-0.80;99.90;;;;;;5031419;28;20060;-62
2022/12/14 11:20:53;;;;;;;35.13;18.90;;;-0.70;99.90;;;;;;5037984;28;20045;-62
2022/12/14 11:23:46;;;;;;;33.83;17.95;;;-0.80;99.90;;;;;;5030888;28;20048;-62
2022/12/14 11:26:24;;;;;;;33.58;17.23;;;-0.90;99.90;;;;;;5029907;28;20045;-62
2022/12/14 11:28:55;;;;;;;37.75;19.10;;;-1.00;99.90;;;;;;5028586;28;20088;-62
2022/12/14 11:31:31;;;;;;;32.25;17.95;;;-1.10;99.90;;;;;;5032690;28;20041;-62
2022/12/14 11:33:58;;;;;;;33.80;18.08;;;-1.10;99.90;;;;;;5027959;28;20408;-62
2022/12/14 11:36:44;;;;;;;36.22;19.20;;;-1.20;99.90;;;;;;5032143;28;20156;-62
2022/12/14 11:39:13;;;;;;;32.15;18.38;;;-1.20;99.90;;;;;;5026806;28;20408;-62
2022/12/14 11:41:41;;;;;;;37.58;18.88;;;-1.30;99.90;;;;;;5031985;28;20144;-62
2022/12/14 11:44:13;;;;;;;35.92;19.55;;;-1.30;99.90;;;;;;5035185;28;21072;-62
2022/12/14 11:46:45;;;;;;;39.10;20.85;;;-1.30;99.90;;;;;;5031777;28;20488;-62
2022/12/14 11:49:38;;;;;;;37.38;20.58;;;-1.30;99.90;;;;;;5048529;28;20163;-62
2022/12/14 11:52:03;;;;;;;39.53;20.25;;;-1.30;99.90;;;;;;5018432;28;20131;-62
2022/12/14 11:54:38;;;;;;;42.25;20.40;;;-1.30;99.90;;;;;;5027991;28;20281;-62
2022/12/14 11:57:27;;;;;;;42.90;22.08;;;-1.30;99.90;;;;;;5026875;28;20116;-61
2022/12/14 12:00:04;;;;;;;36.67;20.15;;;-1.30;99.90;;;;;;5028964;28;20164;-62
2022/12/14 12:02:32;;;;;;;38.63;19.85;;;-1.30;99.90;;;;;;5031327;28;20098;-62
2022/12/14 12:05:11;;;;;;;35.83;18.38;;;-1.30;99.90;;;;;;5031448;28;20041;-62
2022/12/14 12:07:58;;;;;;;34.08;18.98;;;-1.30;99.90;;;;;;5030550;28;20107;-62
2022/12/14 12:10:35;;;;;;;36.00;18.50;;;-1.30;99.90;;;;;;5028272;28;20683;-62
2022/12/14 12:13:03;;;;;;;33.78;17.80;;;-1.30;99.90;;;;;;5031426;28;20053;-61
2022/12/14 12:15:45;;;;;;;27.40;15.68;;;-1.30;99.90;;;;;;5030826;28;20064;-62
2022/12/14 12:18:21;;;;;;;28.77;15.07;;;-1.30;99.90;;;;;;5025859;28;20135;-62
2022/12/14 12:21:13;;;;;;;27.70;15.13;;;-1.40;99.90;;;;;;5032280;28;20049;-61
2022/12/14 12:23:48;;;;;;;26.13;14.37;;;-1.30;99.90;;;;;;5036751;28;20119;-62
2022/12/14 12:26:27;;;;;;;29.80;15.55;;;-1.40;99.90;;;;;;5028404;28;20492;-62
2022/12/14 12:29:16;;;;;;;28.45;15.52;;;-1.40;99.90;;;;;;5032502;28;20203;-62
2022/12/14 12:32:05;;;;;;;26.75;14.63;;;-1.30;99.90;;;;;;5015169;28;20191;-61
2022/12/14 12:34:36;;;;;;;30.13;14.77;;;-1.30;99.90;;;;;;5029705;28;20045;-62
2022/12/14 12:37:07;;;;;;;27.92;15.45;;;-1.30;99.90;;;;;;5029522;28;20049;-62
2022/12/14 12:39:37;;;;;;;30.33;16.00;;;-1.30;99.90;;;;;;5031147;28;20044;-62
2022/12/14 12:42:31;;;;;;;26.77;14.70;;;-1.20;99.90;;;;;;5034423;28;20057;-62
2022/12/14 12:45:01;;;;;;;;;;;-1.30;99.90;;;;;;5031987;28;20506;-62
2022/12/14 12:47:42;;;;;;;29.73;14.95;;;-1.20;99.90;;;;;;5032395;28;19921;-62
2022/12/14 12:50:47;;;;;;;30.35;15.65;;;-1.20;99.90;;;;;;5030478;28;20468;-62
2022/12/14 12:53:15;;;;;;;30.85;16.50;;;-1.10;99.90;;;;;;5028366;28;20049;-62
2022/12/14 12:56:13;;;;;;;31.13;15.50;;;-1.00;99.90;;;;;;5030166;28;20037;-62
2022/12/14 12:58:41;;;;;;;30.63;15.68;;;-0.90;99.90;;;;;;5013715;28;20518;-62
2022/12/14 13:01:26;;;;;;;29.27;15.63;;;-0.70;99.90;;;;;;5022604;28;20126;-62
2022/12/14 13:04:01;;;;;;;27.80;16.00;;;-0.50;99.90;;;;;;5031275;28;20536;-62
2022/12/14 13:06:31;;;;;;;29.13;15.20;;;-0.30;99.90;;;;;;5026795;28;20041;-62
2022/12/14 13:09:15;;;;;;;28.42;16.10;;;-0.10;99.90;;;;;;5025209;28;20037;-62
2022/12/14 13:11:42;;;;;;;30.95;16.08;;;0.10;99.90;;;;;;5028529;28;20127;-62
2022/12/14 13:14:20;;;;;;;27.08;16.30;;;0.30;99.90;;;;;;5031506;28;20404;-62